Time;durP1;ratioP1;P1;durP2;ratioP2;P2;SDS_P1;SDS_P2;PMS_P1;PMS_P2;Temp;Humidity;BMP_temperature;BMP_pressure;BME280_temperature;BME280_humidity;BME280_pressure;Samples;Min_cycle;Max_cycle;Signal;HPM_P1;HPM_P2
2023/08/17 00:01:44;;;;;;;6.72;2.63;;;18.80;67.20;;;;;;4969414;28;20362;-72
2023/08/17 00:04:11;;;;;;;5.63;3.20;;;18.80;67.40;;;;;;4970780;28;20058;-72
2023/08/17 00:06:38;;;;;;;5.15;2.40;;;18.80;67.40;;;;;;4969622;28;20142;-72
2023/08/17 00:09:06;;;;;;;5.45;2.28;;;18.80;67.40;;;;;;4969208;28;20510;-72
2023/08/17 00:11:35;;;;;;;5.77;2.43;;;18.80;67.50;;;;;;4969012;28;20062;-72
2023/08/17 00:14:03;;;;;;;5.53;2.35;;;18.70;67.70;;;;;;4969483;28;20254;-73
2023/08/17 00:16:30;;;;;;;6.43;2.60;;;18.70;67.60;;;;;;4969333;28;20062;-72
2023/08/17 00:18:58;;;;;;;4.75;2.38;;;18.70;67.70;;;;;;4970852;28;20122;-72
2023/08/17 00:21:26;;;;;;;6.75;2.70;;;18.70;67.70;;;;;;4970391;28;20062;-72
2023/08/17 00:23:56;;;;;;;6.30;2.60;;;18.70;67.70;;;;;;4965816;28;20051;-72
2023/08/17 00:26:23;;;;;;;5.47;2.38;;;18.70;67.70;;;;;;4949900;28;20287;-72
2023/08/17 00:28:52;;;;;;;5.22;2.30;;;18.70;67.70;;;;;;4949644;28;20059;-72
2023/08/17 00:31:20;;;;;;;5.35;2.50;;;18.70;67.70;;;;;;4949626;28;20048;-72
2023/08/17 00:33:47;;;;;;;6.47;2.60;;;18.70;67.70;;;;;;4949895;28;20131;-72
2023/08/17 00:36:14;;;;;;;7.90;2.53;;;18.60;67.80;;;;;;4949948;28;21036;-72
2023/08/17 00:38:42;;;;;;;5.28;2.20;;;18.60;67.90;;;;;;4949461;28;20347;-72
2023/08/17 00:41:09;;;;;;;6.32;2.40;;;18.60;68.00;;;;;;4949587;28;20130;-72
2023/08/17 00:43:37;;;;;;;6.85;2.28;;;18.50;68.10;;;;;;4937293;28;20134;-72
2023/08/17 00:46:07;;;;;;;6.38;2.10;;;18.50;68.20;;;;;;4943220;28;20107;-72
2023/08/17 00:48:35;;;;;;;6.00;2.30;;;18.50;68.30;;;;;;4952464;28;20583;-72
2023/08/17 00:51:02;;;;;;;7.30;2.08;;;18.40;68.30;;;;;;4952261;28;20758;-72
2023/08/17 00:53:31;;;;;;;6.80;1.85;;;18.40;68.50;;;;;;4952532;28;20924;-72
2023/08/17 00:56:04;;;;;;;6.07;1.90;;;18.40;68.50;;;;;;4952366;28;20058;-72
2023/08/17 00:58:34;;;;;;;6.05;1.92;;;18.30;68.60;;;;;;4952357;28;20537;-72
2023/08/17 01:01:02;;;;;;;5.03;1.93;;;18.30;68.60;;;;;;4952499;28;20055;-72
2023/08/17 01:03:32;;;;;;;5.93;1.80;;;18.30;68.60;;;;;;4952397;28;20271;-72
2023/08/17 01:06:02;;;;;;;5.25;2.03;;;18.30;68.70;;;;;;4952365;28;21090;-72
2023/08/17 01:08:30;;;;;;;3.53;1.60;;;18.20;68.80;;;;;;4968379;28;20585;-72
2023/08/17 01:11:05;;;;;;;6.53;1.77;;;18.20;69.00;;;;;;4970026;28;20051;-72
2023/08/17 01:13:39;;;;;;;4.27;1.87;;;18.20;69.00;;;;;;4968727;28;20502;-72
2023/08/17 01:16:10;;;;;;;4.97;1.95;;;18.10;69.10;;;;;;4952638;28;20366;-72
2023/08/17 01:18:41;;;;;;;5.90;1.95;;;18.10;69.10;;;;;;4968196;28;20090;-72
2023/08/17 01:21:14;;;;;;;6.20;2.05;;;18.10;69.20;;;;;;4952524;28;20134;-72
2023/08/17 01:23:45;;;;;;;5.03;1.90;;;18.10;69.20;;;;;;4955496;28;20132;-72
2023/08/17 01:26:15;;;;;;;4.60;2.03;;;18.10;69.30;;;;;;4973555;28;20063;-72
2023/08/17 01:28:46;;;;;;;5.35;1.92;;;18.00;69.30;;;;;;4955422;28;20256;-72
2023/08/17 01:31:20;;;;;;;4.88;2.17;;;18.00;69.40;;;;;;4955448;28;20050;-72
2023/08/17 01:33:52;;;;;;;5.07;1.90;;;18.00;69.50;;;;;;4955339;28;21003;-72
2023/08/17 01:36:26;;;;;;;4.97;2.00;;;18.00;69.50;;;;;;4971433;28;20485;-72
2023/08/17 01:38:57;;;;;;;5.87;1.87;;;18.00;69.50;;;;;;4955190;28;20557;-72
2023/08/17 01:41:25;;;;;;;4.00;2.00;;;18.00;69.60;;;;;;4971590;28;21047;-72
2023/08/17 01:43:53;;;;;;;5.30;1.98;;;18.00;69.50;;;;;;4955427;28;20497;-72
2023/08/17 01:46:22;;;;;;;5.47;2.05;;;18.00;69.60;;;;;;4955685;28;20049;-72
2023/08/17 01:48:49;;;;;;;4.55;1.77;;;18.00;69.60;;;;;;4955232;28;20440;-72
2023/08/17 01:51:20;;;;;;;5.50;2.00;;;18.00;69.70;;;;;;4954939;28;20056;-72
2023/08/17 01:53:48;;;;;;;4.60;1.85;;;18.00;69.80;;;;;;4955590;28;20286;-72
2023/08/17 01:56:16;;;;;;;7.22;2.33;;;18.00;69.70;;;;;;4971349;28;20138;-72
2023/08/17 01:58:44;;;;;;;4.65;2.08;;;18.00;69.90;;;;;;4971212;28;20067;-72
2023/08/17 02:01:11;;;;;;;5.10;2.00;;;18.00;69.80;;;;;;4954767;28;20602;-72
2023/08/17 02:03:38;;;;;;;4.77;2.07;;;17.90;69.80;;;;;;4955205;28;20596;-72
2023/08/17 02:06:05;;;;;;;5.15;1.80;;;17.90;69.80;;;;;;4971014;28;20256;-72
2023/08/17 02:08:34;;;;;;;6.43;1.90;;;17.90;69.90;;;;;;4971101;28;20126;-72
2023/08/17 02:11:01;;;;;;;4.90;1.92;;;17.80;70.00;;;;;;4954906;28;20577;-72
2023/08/17 02:13:30;;;;;;;4.30;1.73;;;17.80;70.00;;;;;;4954927;28;20126;-72
2023/08/17 02:16:03;;;;;;;6.97;2.03;;;17.80;70.00;;;;;;4955099;28;20055;-72
2023/08/17 02:18:31;;;;;;;5.60;1.75;;;17.80;70.00;;;;;;4954434;28;20287;-72
2023/08/17 02:20:59;;;;;;;5.65;1.83;;;17.80;70.10;;;;;;4970801;28;20051;-72
2023/08/17 02:23:26;;;;;;;5.47;1.80;;;17.70;70.20;;;;;;4970867;28;20157;-72
2023/08/17 02:25:53;;;;;;;6.20;2.00;;;17.70;70.20;;;;;;4954849;28;20043;-72
2023/08/17 02:28:23;;;;;;;4.70;1.67;;;17.70;70.20;;;;;;4972211;28;20142;-72
2023/08/17 02:30:58;;;;;;;5.72;1.98;;;17.70;70.30;;;;;;4970760;28;20283;-72
2023/08/17 02:33:26;;;;;;;5.25;1.98;;;17.70;70.30;;;;;;4970613;28;20110;-72
2023/08/17 02:35:54;;;;;;;4.80;1.60;;;17.60;70.30;;;;;;4954536;28;20078;-72
2023/08/17 02:38:20;;;;;;;5.28;1.90;;;17.60;70.30;;;;;;4972482;28;20118;-72
2023/08/17 02:40:49;;;;;;;7.40;2.10;;;17.60;70.40;;;;;;4954483;28;20488;-72
2023/08/17 02:43:17;;;;;;;5.85;1.90;;;17.60;70.60;;;;;;4970867;28;20363;-72
2023/08/17 02:45:45;;;;;;;12.48;2.92;;;17.60;70.60;;;;;;4970887;28;20483;-72
2023/08/17 02:48:13;;;;;;;7.88;1.95;;;17.60;70.70;;;;;;4954687;28;20138;-72
2023/08/17 02:50:41;;;;;;;4.97;1.73;;;17.50;70.70;;;;;;4954196;28;20054;-72
2023/08/17 02:53:09;;;;;;;6.03;1.80;;;17.50;70.80;;;;;;4954309;28;20046;-72
2023/08/17 02:55:35;;;;;;;4.90;2.00;;;17.50;70.90;;;;;;4954158;28;21248;-72
2023/08/17 02:58:03;;;;;;;5.78;2.00;;;17.50;71.00;;;;;;4953848;28;20138;-72
2023/08/17 03:00:30;;;;;;;5.72;2.20;;;17.50;71.10;;;;;;4954493;28;20051;-72
2023/08/17 03:02:58;;;;;;;4.70;2.05;;;17.50;71.20;;;;;;4970765;28;20055;-72
2023/08/17 03:05:27;;;;;;;5.33;2.00;;;17.40;71.20;;;;;;4970467;28;20549;-72
2023/08/17 03:07:55;;;;;;;6.20;2.10;;;17.40;71.30;;;;;;4969906;28;20252;-72
2023/08/17 03:10:24;;;;;;;5.00;1.90;;;17.40;71.40;;;;;;4969931;28;20055;-72
2023/08/17 03:12:51;;;;;;;6.53;2.03;;;17.40;71.50;;;;;;4952899;28;20058;-72
2023/08/17 03:15:19;;;;;;;6.15;1.98;;;17.40;71.60;;;;;;4952969;28;20103;-72
2023/08/17 03:17:46;;;;;;;4.77;2.10;;;17.40;71.70;;;;;;4952246;28;20494;-72
2023/08/17 03:20:13;;;;;;;6.18;2.00;;;17.40;71.80;;;;;;4951116;28;20323;-72
2023/08/17 03:22:41;;;;;;;6.60;2.00;;;17.40;71.70;;;;;;4969000;28;20055;-72
2023/08/17 03:25:09;;;;;;;5.55;2.13;;;17.40;72.00;;;;;;4967132;28;20047;-72
2023/08/17 03:27:37;;;;;;;5.90;2.25;;;17.30;71.90;;;;;;4968537;28;20146;-72
2023/08/17 03:30:05;;;;;;;6.00;2.20;;;17.30;72.00;;;;;;4953399;28;20137;-72
2023/08/17 03:32:33;;;;;;;4.60;1.92;;;17.30;72.00;;;;;;4953712;28;20682;-72
2023/08/17 03:35:01;;;;;;;6.60;2.50;;;17.30;72.20;;;;;;4953710;28;20103;-72
2023/08/17 03:37:29;;;;;;;6.40;2.20;;;17.20;72.20;;;;;;4953953;28;20051;-72
2023/08/17 03:40:00;;;;;;;5.43;2.13;;;17.20;72.30;;;;;;4953969;28;20489;-72
2023/08/17 03:42:28;;;;;;;4.73;2.40;;;17.20;72.30;;;;;;4969808;28;20055;-72
2023/08/17 03:44:55;;;;;;;6.22;2.10;;;17.20;72.40;;;;;;4970743;28;20350;-72
2023/08/17 03:47:22;;;;;;;5.90;2.30;;;17.20;72.50;;;;;;4953245;28;20071;-72
2023/08/17 03:49:50;;;;;;;6.85;2.45;;;17.20;72.50;;;;;;4969307;28;20338;-72
2023/08/17 03:52:18;;;;;;;5.60;2.50;;;17.20;72.50;;;;;;4953276;28;20586;-72
2023/08/17 03:54:46;;;;;;;4.57;2.10;;;17.20;72.50;;;;;;4969515;28;20079;-72
2023/08/17 03:57:15;;;;;;;6.80;2.00;;;17.20;72.60;;;;;;4952797;28;20252;-72
2023/08/17 03:59:42;;;;;;;5.28;2.05;;;17.20;72.70;;;;;;4953505;28;20051;-73
2023/08/17 04:02:10;;;;;;;6.18;2.40;;;17.20;72.70;;;;;;4952947;28;20091;-73
2023/08/17 04:04:38;;;;;;;5.50;2.38;;;17.20;72.80;;;;;;4953564;28;20051;-73
2023/08/17 04:07:06;;;;;;;5.73;2.30;;;17.20;72.90;;;;;;4952945;28;20522;-73
2023/08/17 04:09:35;;;;;;;6.10;2.50;;;17.20;73.00;;;;;;4969431;28;20326;-73
2023/08/17 04:12:05;;;;;;;5.15;2.33;;;17.20;73.20;;;;;;4968969;28;20091;-73
2023/08/17 04:14:36;;;;;;;7.63;2.58;;;17.20;73.20;;;;;;4953055;28;20048;-73
2023/08/17 04:17:03;;;;;;;5.90;2.53;;;17.20;73.30;;;;;;4969145;28;20051;-73
2023/08/17 04:19:30;;;;;;;5.07;2.30;;;17.20;73.30;;;;;;4953474;28;21012;-73
2023/08/17 04:21:58;;;;;;;5.55;2.28;;;17.20;73.30;;;;;;4952823;28;20286;-73
2023/08/17 04:24:26;;;;;;;6.72;2.33;;;17.20;73.50;;;;;;4970868;28;20057;-73
2023/08/17 04:26:54;;;;;;;5.28;2.03;;;17.10;73.50;;;;;;4952928;28;20048;-73
2023/08/17 04:29:21;;;;;;;8.75;2.40;;;17.10;73.50;;;;;;4968785;28;20150;-73
2023/08/17 04:31:50;;;;;;;4.93;2.20;;;17.10;73.70;;;;;;4969890;28;20186;-73
2023/08/17 04:34:17;;;;;;;6.43;2.13;;;17.10;73.80;;;;;;4952618;28;20342;-73
2023/08/17 04:36:45;;;;;;;4.20;1.90;;;17.10;73.70;;;;;;4953101;28;20063;-71
2023/08/17 04:39:12;;;;;;;5.80;2.40;;;17.20;73.80;;;;;;4952875;28;20417;-71
2023/08/17 04:41:40;;;;;;;7.05;2.25;;;17.10;74.00;;;;;;4948663;28;20059;-71
2023/08/17 04:44:09;;;;;;;5.73;2.00;;;17.10;74.00;;;;;;4933382;28;20048;-71
2023/08/17 04:46:36;;;;;;;6.15;2.20;;;17.10;74.00;;;;;;4948894;28;20359;-71
2023/08/17 04:49:05;;;;;;;7.20;2.00;;;17.10;74.10;;;;;;4968749;28;20059;-71
2023/08/17 04:51:32;;;;;;;4.85;1.80;;;17.10;74.10;;;;;;4952452;28;20051;-71
2023/08/17 04:53:59;;;;;;;5.38;2.35;;;17.10;74.30;;;;;;4953055;28;20054;-71
2023/08/17 04:56:27;;;;;;;7.30;2.10;;;17.10;74.10;;;;;;4967664;28;20146;-71
2023/08/17 04:58:55;;;;;;;5.47;1.90;;;17.10;74.30;;;;;;4968363;28;20276;-71
2023/08/17 05:01:22;;;;;;;4.75;2.03;;;17.10;74.30;;;;;;4968278;28;20087;-71
2023/08/17 05:03:49;;;;;;;7.20;1.67;;;17.10;74.40;;;;;;4952395;28;20043;-71
2023/08/17 05:06:17;;;;;;;7.25;2.30;;;17.00;74.40;;;;;;4952590;28;20048;-71
2023/08/17 05:08:45;;;;;;;5.50;1.80;;;17.10;74.50;;;;;;4969956;28;20061;-71
2023/08/17 05:11:12;;;;;;;5.18;1.73;;;17.10;74.50;;;;;;4952228;28;20319;-71
2023/08/17 05:13:40;;;;;;;4.43;1.60;;;17.10;74.60;;;;;;4968266;28;20055;-71
2023/08/17 05:16:07;;;;;;;4.72;1.80;;;17.10;74.50;;;;;;4952608;28;20043;-71
2023/08/17 05:18:35;;;;;;;5.85;2.10;;;17.10;74.60;;;;;;4952275;28;20047;-71
2023/08/17 05:21:03;;;;;;;5.60;1.80;;;17.20;74.70;;;;;;4952369;28;20059;-71
2023/08/17 05:23:33;;;;;;;6.80;2.05;;;17.10;74.90;;;;;;4952305;28;20259;-71
2023/08/17 05:26:01;;;;;;;5.50;1.80;;;17.10;74.90;;;;;;4951847;28;20130;-71
2023/08/17 05:28:29;;;;;;;5.85;1.88;;;17.10;75.00;;;;;;4952406;28;20644;-71
2023/08/17 05:30:56;;;;;;;6.38;2.03;;;17.10;75.10;;;;;;4968400;28;20130;-71
2023/08/17 05:33:23;;;;;;;5.20;1.83;;;17.10;75.20;;;;;;4968426;28;20138;-71
2023/08/17 05:35:55;;;;;;;5.18;1.90;;;17.10;75.30;;;;;;4952002;28;20821;-72
2023/08/17 05:38:22;;;;;;;6.20;1.85;;;17.10;75.30;;;;;;4952062;28;20079;-71
2023/08/17 05:40:57;;;;;;;4.72;1.60;;;17.10;75.40;;;;;;4952289;28;20058;-71
2023/08/17 05:43:24;;;;;;;4.75;2.00;;;17.10;75.50;;;;;;4952270;28;20051;-71
2023/08/17 05:45:51;;;;;;;7.03;2.00;;;17.10;75.50;;;;;;4952280;28;20154;-71
2023/08/17 05:48:20;;;;;;;41.30;4.70;;;17.10;75.50;;;;;;4968447;28;20841;-72
2023/08/17 05:50:47;;;;;;;6.32;1.83;;;17.10;75.70;;;;;;4968351;28;20087;-72
2023/08/17 05:53:15;;;;;;;6.85;2.00;;;17.10;75.60;;;;;;4967872;28;20051;-72
2023/08/17 05:55:42;;;;;;;4.78;2.08;;;17.10;75.70;;;;;;4969817;28;20052;-73
2023/08/17 05:58:10;;;;;;;6.43;1.70;;;17.10;75.80;;;;;;4951241;28;20553;-72
2023/08/17 06:00:37;;;;;;;4.57;1.77;;;17.10;75.90;;;;;;4969583;28;20252;-73
2023/08/17 06:03:05;;;;;;;4.85;1.80;;;17.10;75.90;;;;;;4968253;28;20216;-73
2023/08/17 06:05:32;;;;;;;6.75;1.70;;;17.10;75.90;;;;;;4969517;28;20057;-72
2023/08/17 06:07:59;;;;;;;5.88;1.77;;;17.20;76.00;;;;;;4952874;28;20513;-72
2023/08/17 06:10:27;;;;;;;5.13;1.70;;;17.20;76.10;;;;;;4970894;28;20966;-72
2023/08/17 06:12:54;;;;;;;8.23;1.73;;;17.20;76.00;;;;;;4970820;28;20252;-72
2023/08/17 06:15:24;;;;;;;5.53;1.90;;;17.20;76.00;;;;;;4971478;28;20052;-73
2023/08/17 06:17:51;;;;;;;4.85;1.77;;;17.20;76.10;;;;;;4972104;28;20059;-72
2023/08/17 06:20:18;;;;;;;5.20;1.55;;;17.20;76.00;;;;;;4970758;28;20060;-72
2023/08/17 06:22:45;;;;;;;16.87;2.73;;;17.20;76.10;;;;;;4970859;28;20085;-73
2023/08/17 06:25:13;;;;;;;6.45;1.60;;;17.20;76.10;;;;;;4968008;28;20703;-73
2023/08/17 06:27:43;;;;;;;6.85;2.13;;;17.20;76.20;;;;;;4951567;28;20907;-73
2023/08/17 06:30:12;;;;;;;19.90;2.67;;;17.20;76.20;;;;;;4952869;28;20059;-72
2023/08/17 06:32:40;;;;;;;6.55;1.80;;;17.20;76.20;;;;;;4951582;28;20412;-72
2023/08/17 06:35:09;;;;;;;5.20;1.53;;;17.20;76.20;;;;;;4951155;28;20052;-72
2023/08/17 06:37:37;;;;;;;5.70;1.77;;;17.20;76.30;;;;;;4952874;28;20282;-73
2023/08/17 06:40:06;;;;;;;5.88;1.63;;;17.20;76.30;;;;;;4951364;28;20052;-73
2023/08/17 06:42:34;;;;;;;5.85;2.05;;;17.30;76.40;;;;;;4951757;28;20135;-72
2023/08/17 06:45:01;;;;;;;5.00;1.52;;;17.30;76.50;;;;;;4952673;28;20055;-72
2023/08/17 06:47:28;;;;;;;5.27;1.70;;;17.30;76.50;;;;;;4951508;28;20051;-72
2023/08/17 06:49:57;;;;;;;4.70;1.63;;;17.40;76.60;;;;;;4952200;28;20252;-73
2023/08/17 06:52:25;;;;;;;5.68;1.90;;;17.40;76.60;;;;;;4955536;28;20047;-72
2023/08/17 06:54:52;;;;;;;4.82;1.70;;;17.40;76.70;;;;;;4963413;28;20998;-72
2023/08/17 06:57:21;;;;;;;6.70;2.00;;;17.40;76.60;;;;;;4961935;28;20502;-73
2023/08/17 06:59:48;;;;;;;5.20;1.80;;;17.40;76.70;;;;;;4964345;28;20106;-73
2023/08/17 07:02:15;;;;;;;5.03;1.85;;;17.40;76.70;;;;;;4963271;28;20736;-72
2023/08/17 07:04:42;;;;;;;4.35;1.73;;;17.50;76.60;;;;;;4961794;28;20584;-72
2023/08/17 07:07:14;;;;;;;5.10;1.98;;;17.50;76.70;;;;;;4965561;28;20718;-72
2023/08/17 07:09:42;;;;;;;5.10;1.67;;;17.50;76.60;;;;;;4959683;28;20162;-72
2023/08/17 07:12:09;;;;;;;6.53;1.90;;;17.50;76.70;;;;;;4960354;28;20055;-73
2023/08/17 07:14:37;;;;;;;6.20;1.60;;;17.50;76.60;;;;;;4957860;28;20260;-73
2023/08/17 07:17:07;;;;;;;6.05;1.90;;;17.50;76.60;;;;;;4957973;28;20051;-72
2023/08/17 07:19:34;;;;;;;5.03;2.17;;;17.50;76.60;;;;;;4963911;28;20062;-72
2023/08/17 07:22:01;;;;;;;5.07;1.70;;;17.50;76.60;;;;;;4959389;28;20060;-73
2023/08/17 07:24:29;;;;;;;5.43;1.73;;;17.60;76.60;;;;;;4966613;28;20134;-72
2023/08/17 07:26:56;;;;;;;4.63;1.58;;;17.60;76.60;;;;;;4940256;28;20276;-72
2023/08/17 07:29:23;;;;;;;5.85;1.83;;;17.60;76.60;;;;;;4951579;28;20057;-72
2023/08/17 07:31:51;;;;;;;4.88;2.00;;;17.60;76.40;;;;;;4959205;28;20659;-73
2023/08/17 07:34:18;;;;;;;5.43;1.60;;;17.70;76.30;;;;;;4968027;28;20051;-72
2023/08/17 07:36:45;;;;;;;5.20;1.60;;;17.70;76.20;;;;;;4969793;28;20127;-73
2023/08/17 07:39:13;;;;;;;4.35;1.45;;;17.80;76.20;;;;;;4952335;28;20319;-73
2023/08/17 07:41:42;;;;;;;3.90;1.50;;;17.80;76.20;;;;;;4963867;28;20066;-72
2023/08/17 07:44:09;;;;;;;5.72;1.83;;;17.80;76.20;;;;;;4950901;28;20053;-73
2023/08/17 07:46:36;;;;;;;5.88;1.60;;;17.80;76.10;;;;;;4962280;28;20114;-73
2023/08/17 07:49:03;;;;;;;4.97;1.50;;;17.80;76.10;;;;;;4942427;28;20059;-72
2023/08/17 07:51:31;;;;;;;5.38;1.80;;;17.80;76.10;;;;;;4958160;28;20403;-72
2023/08/17 07:53:58;;;;;;;4.47;1.50;;;17.90;76.10;;;;;;4963924;28;20139;-72
2023/08/17 07:56:25;;;;;;;4.95;1.60;;;17.90;76.00;;;;;;4966059;28;20087;-73
2023/08/17 07:58:54;;;;;;;4.22;1.45;;;18.00;75.70;;;;;;4959939;28;20143;-72
2023/08/17 08:01:21;;;;;;;4.47;1.10;;;18.00;75.70;;;;;;4944171;28;20344;-72
2023/08/17 08:03:49;;;;;;;4.68;1.33;;;18.00;75.80;;;;;;4945483;28;20260;-72
2023/08/17 08:06:16;;;;;;;5.85;1.40;;;18.00;75.70;;;;;;4967279;28;20502;-72
2023/08/17 08:08:44;;;;;;;3.92;1.02;;;18.00;75.60;;;;;;4967801;28;20302;-73
2023/08/17 08:11:11;;;;;;;5.03;1.20;;;18.00;75.60;;;;;;4964084;28;20055;-73
2023/08/17 08:13:38;;;;;;;4.47;1.17;;;18.00;75.50;;;;;;4961170;28;20059;-73
2023/08/17 08:16:07;;;;;;;3.60;1.20;;;18.10;75.50;;;;;;4962159;28;20275;-73
2023/08/17 08:18:35;;;;;;;5.43;1.40;;;18.10;75.30;;;;;;4968644;28;20134;-73
2023/08/17 08:21:02;;;;;;;5.35;1.00;;;18.10;75.40;;;;;;4969277;28;20548;-73
2023/08/17 08:23:29;;;;;;;4.57;1.20;;;18.20;75.40;;;;;;4967113;28;20066;-73
2023/08/17 08:25:58;;;;;;;6.43;1.20;;;18.20;75.50;;;;;;4965073;28;20054;-72
2023/08/17 08:28:25;;;;;;;4.18;1.00;;;18.20;75.50;;;;;;4949897;28;20314;-73
2023/08/17 08:30:53;;;;;;;3.80;1.20;;;18.30;75.50;;;;;;4960113;28;20413;-73
2023/08/17 08:33:21;;;;;;;5.32;1.08;;;18.30;75.30;;;;;;4956382;28;20056;-73
2023/08/17 08:35:48;;;;;;;3.83;1.15;;;18.40;75.20;;;;;;4968038;28;20051;-73
2023/08/17 08:38:16;;;;;;;5.07;1.10;;;18.40;75.10;;;;;;4968926;28;20051;-73
2023/08/17 08:40:44;;;;;;;3.35;1.00;;;18.40;75.00;;;;;;4966324;28;20275;-73
2023/08/17 08:43:12;;;;;;;5.57;1.38;;;18.50;75.00;;;;;;4960581;28;20047;-72
2023/08/17 08:45:44;;;;;;;4.78;1.10;;;18.50;75.00;;;;;;4959396;28;20059;-73
2023/08/17 08:48:13;;;;;;;4.93;1.35;;;18.50;74.80;;;;;;4963210;28;20061;-73
2023/08/17 08:50:42;;;;;;;4.10;1.10;;;18.50;74.70;;;;;;4959431;28;20158;-73
2023/08/17 08:53:14;;;;;;;6.35;1.27;;;18.50;74.60;;;;;;4960524;28;20274;-73
2023/08/17 08:55:48;;;;;;;3.92;0.93;;;18.60;74.70;;;;;;4966705;28;20146;-73
2023/08/17 08:58:17;;;;;;;2.83;0.80;;;18.60;74.70;;;;;;4966184;28;20047;-73
2023/08/17 09:00:46;;;;;;;4.55;1.05;;;18.60;74.80;;;;;;4959923;28;20132;-73
2023/08/17 09:03:14;;;;;;;8.53;1.50;;;18.60;74.50;;;;;;4958152;28;20555;-73
2023/08/17 09:05:45;;;;;;;4.53;1.00;;;18.70;74.40;;;;;;4967456;28;20291;-73
2023/08/17 09:08:14;;;;;;;3.35;1.10;;;18.70;74.30;;;;;;4967109;28;20047;-73
2023/08/17 09:10:42;;;;;;;7.65;1.20;;;18.70;74.20;;;;;;4968510;28;21092;-73
2023/08/17 09:13:09;;;;;;;3.55;0.80;;;18.70;74.10;;;;;;4968592;28;20576;-73
2023/08/17 09:15:36;;;;;;;2.90;0.97;;;18.70;74.10;;;;;;4968459;28;20752;-73
2023/08/17 09:18:07;;;;;;;4.78;1.33;;;18.80;74.20;;;;;;4966590;28;20286;-72
2023/08/17 09:20:39;;;;;;;4.50;0.98;;;18.80;74.10;;;;;;4949144;28;20713;-73
2023/08/17 09:23:13;;;;;;;6.68;1.25;;;18.80;74.10;;;;;;4960818;28;20052;-72
2023/08/17 09:25:43;;;;;;;8.10;1.30;;;18.80;73.90;;;;;;4960953;28;20062;-73
2023/08/17 09:28:12;;;;;;;4.80;1.17;;;18.90;73.90;;;;;;4968355;28;20083;-73
2023/08/17 09:30:59;;;;;;;6.68;1.33;;;18.90;73.80;;;;;;4959389;28;20265;-73
2023/08/17 09:33:27;;;;;;;6.05;1.00;;;18.90;73.70;;;;;;4975228;28;21027;-73
2023/08/17 09:36:01;;;;;;;4.38;1.00;;;18.90;73.60;;;;;;4969423;28;20055;-72
2023/08/17 09:38:30;;;;;;;5.35;1.20;;;18.90;73.50;;;;;;4960290;28;20055;-73
2023/08/17 09:40:59;;;;;;;4.30;1.20;;;18.90;73.50;;;;;;4951568;28;20051;-74
2023/08/17 09:43:28;;;;;;;6.43;1.30;;;18.90;73.40;;;;;;4953362;28;21053;-74
2023/08/17 09:45:59;;;;;;;3.55;1.10;;;18.90;73.50;;;;;;4968745;28;20486;-73
2023/08/17 09:48:26;;;;;;;3.80;1.10;;;18.90;73.50;;;;;;4952350;28;20146;-74
2023/08/17 09:50:57;;;;;;;3.28;1.08;;;18.90;73.50;;;;;;4970884;28;20099;-73
2023/08/17 09:53:25;;;;;;;3.53;1.33;;;19.00;73.70;;;;;;4969218;28;20293;-73
2023/08/17 09:55:54;;;;;;;6.05;1.25;;;19.00;73.80;;;;;;4946900;28;20260;-73
2023/08/17 09:58:21;;;;;;;4.07;1.15;;;19.00;73.90;;;;;;4946859;28;20055;-72
2023/08/17 10:00:50;;;;;;;4.47;1.10;;;19.10;73.80;;;;;;4970661;28;20614;-72
2023/08/17 10:03:18;;;;;;;6.65;1.40;;;19.10;73.70;;;;;;4954656;28;20512;-73
2023/08/17 10:05:48;;;;;;;5.00;1.10;;;19.10;73.60;;;;;;4965854;28;20134;-71
2023/08/17 10:08:20;;;;;;;3.90;1.05;;;19.20;73.60;;;;;;4970122;28;20263;-72
2023/08/17 10:10:47;;;;;;;4.00;0.90;;;19.20;73.40;;;;;;4969829;28;20047;-71
2023/08/17 10:13:25;;;;;;;5.35;1.30;;;19.20;73.40;;;;;;4971481;28;20715;-71
2023/08/17 10:15:58;;;;;;;4.45;1.40;;;19.20;73.50;;;;;;4972344;28;20137;-72
2023/08/17 10:18:32;;;;;;;4.83;1.30;;;19.20;73.60;;;;;;4970857;28;20070;-71
2023/08/17 10:21:04;;;;;;;4.05;1.10;;;19.30;73.50;;;;;;4972357;28;20268;-71
2023/08/17 10:23:32;;;;;;;5.50;1.42;;;19.30;73.70;;;;;;4954308;28;20079;-73
2023/08/17 10:26:01;;;;;;;5.82;1.20;;;19.40;73.70;;;;;;4965794;28;20070;-72
2023/08/17 10:28:31;;;;;;;5.93;1.70;;;19.40;73.70;;;;;;4970148;28;20039;-71
2023/08/17 10:30:59;;;;;;;3.80;1.40;;;19.40;73.80;;;;;;4969764;28;20442;-73
2023/08/17 10:33:29;;;;;;;4.78;1.45;;;19.50;73.60;;;;;;4970967;28;20612;-72
2023/08/17 10:35:58;;;;;;;4.43;1.70;;;19.50;73.20;;;;;;4971723;28;20059;-73
2023/08/17 10:38:25;;;;;;;4.95;1.60;;;19.50;73.20;;;;;;4953648;28;20062;-72
2023/08/17 10:41:10;;;;;;;4.65;1.50;;;19.50;73.10;;;;;;4965836;28;20138;-73
2023/08/17 10:43:56;;;;;;;4.53;1.83;;;19.50;72.90;;;;;;4965543;28;20052;-73
2023/08/17 10:46:33;;;;;;;3.97;1.70;;;19.60;72.90;;;;;;4982988;28;20284;-73
2023/08/17 10:49:05;;;;;;;6.05;2.10;;;19.60;72.90;;;;;;4957104;28;20051;-73
2023/08/17 10:51:32;;;;;;;5.85;2.00;;;19.60;72.90;;;;;;4960819;28;23156;-73
2023/08/17 10:54:03;;;;;;;4.47;1.77;;;19.70;72.80;;;;;;4947338;28;20668;-73
2023/08/17 10:56:31;;;;;;;5.33;1.70;;;19.70;72.70;;;;;;4952859;28;20444;-73
2023/08/17 10:59:24;;;;;;;6.47;2.17;;;19.70;72.70;;;;;;4964717;28;20360;-73
2023/08/17 11:01:52;;;;;;;8.18;2.40;;;19.70;72.80;;;;;;4977295;28;20055;-73
2023/08/17 11:04:21;;;;;;;4.88;1.98;;;19.70;72.70;;;;;;4966996;28;20482;-72
2023/08/17 11:07:01;;;;;;;6.22;2.13;;;19.70;72.60;;;;;;4965252;28;20048;-73
2023/08/17 11:09:31;;;;;;;5.40;1.93;;;19.70;72.60;;;;;;4962255;28;20055;-73
2023/08/17 11:12:01;;;;;;;5.00;1.80;;;19.70;72.60;;;;;;4968194;28;20264;-73
2023/08/17 11:14:35;;;;;;;5.22;2.40;;;19.80;72.70;;;;;;4969228;28;20058;-72
2023/08/17 11:17:04;;;;;;;5.05;1.85;;;19.80;72.60;;;;;;4970759;28;20051;-73
2023/08/17 11:19:31;;;;;;;4.25;1.70;;;19.80;72.70;;;;;;4953530;28;20597;-72
2023/08/17 11:21:58;;;;;;;6.80;2.17;;;19.80;72.60;;;;;;4969799;28;20052;-72
2023/08/17 11:24:26;;;;;;;4.22;2.30;;;19.80;72.60;;;;;;4970653;28;20347;-72
2023/08/17 11:26:53;;;;;;;6.78;2.20;;;19.90;72.80;;;;;;4963333;28;20081;-73
2023/08/17 11:29:20;;;;;;;5.30;2.70;;;19.90;72.80;;;;;;4964643;28;20165;-73
2023/08/17 11:31:51;;;;;;;4.85;2.50;;;19.90;72.70;;;;;;4960187;28;20066;-73
2023/08/17 11:34:18;;;;;;;5.80;3.00;;;19.90;72.70;;;;;;4969673;28;20056;-72
2023/08/17 11:36:45;;;;;;;6.53;2.85;;;19.90;72.70;;;;;;4971393;28;20279;-73
2023/08/17 11:39:13;;;;;;;5.55;2.58;;;19.90;72.60;;;;;;4970560;28;21046;-73
2023/08/17 11:41:41;;;;;;;6.22;2.83;;;19.90;72.60;;;;;;4968333;28;20131;-73
2023/08/17 11:44:09;;;;;;;5.68;2.50;;;20.00;72.80;;;;;;4952863;28;20057;-73
2023/08/17 11:46:36;;;;;;;4.53;2.23;;;20.00;72.80;;;;;;4951954;28;20157;-73
2023/08/17 11:49:06;;;;;;;5.72;2.58;;;20.00;72.80;;;;;;4967962;28;20259;-73
2023/08/17 11:51:33;;;;;;;5.78;3.10;;;20.00;72.90;;;;;;4968138;28;20122;-73
2023/08/17 11:54:02;;;;;;;6.82;2.88;;;20.00;73.10;;;;;;4966725;28;20077;-72
2023/08/17 11:56:29;;;;;;;5.60;2.80;;;20.00;73.20;;;;;;4965880;28;20051;-70
2023/08/17 11:58:58;;;;;;;8.00;2.93;;;20.00;73.10;;;;;;4957624;28;20543;-70
2023/08/17 12:01:27;;;;;;;6.03;2.30;;;20.00;73.30;;;;;;4953406;28;20260;-71
2023/08/17 12:03:54;;;;;;;7.22;3.40;;;20.00;73.40;;;;;;4967742;28;20067;-70
2023/08/17 12:06:23;;;;;;;9.30;3.17;;;20.10;73.40;;;;;;4967623;28;20195;-71
2023/08/17 12:08:51;;;;;;;10.10;4.03;;;20.10;73.40;;;;;;4967424;28;20055;-70
2023/08/17 12:11:18;;;;;;;12.70;5.30;;;20.10;73.40;;;;;;4970535;28;20143;-71
2023/08/17 12:13:50;;;;;;;11.13;3.97;;;20.20;73.30;;;;;;4969193;28;20252;-71
2023/08/17 12:16:17;;;;;;;12.30;3.95;;;20.30;73.20;;;;;;4968570;28;20166;-71
2023/08/17 12:18:45;;;;;;;6.43;3.33;;;20.30;73.10;;;;;;4969970;28;20047;-71
2023/08/17 12:21:13;;;;;;;8.50;3.33;;;20.30;73.20;;;;;;4967661;28;20058;-71
2023/08/17 12:23:44;;;;;;;5.47;3.23;;;20.30;73.20;;;;;;4961617;28;20058;-70
2023/08/17 12:26:11;;;;;;;7.15;3.15;;;20.30;73.20;;;;;;4952676;28;20279;-71
2023/08/17 12:28:41;;;;;;;5.78;2.75;;;20.30;73.30;;;;;;4962927;28;20473;-72
2023/08/17 12:31:09;;;;;;;6.03;3.17;;;20.40;73.30;;;;;;4968806;28;20047;-72
2023/08/17 12:33:37;;;;;;;9.30;3.20;;;20.40;73.50;;;;;;4969685;28;20063;-72
2023/08/17 12:36:06;;;;;;;8.20;2.77;;;20.50;73.50;;;;;;4969829;28;20500;-72
2023/08/17 12:38:33;;;;;;;6.60;2.97;;;20.50;73.30;;;;;;4970874;28;20298;-72
2023/08/17 12:41:02;;;;;;;7.72;2.58;;;20.50;73.20;;;;;;4969562;28;20713;-72
2023/08/17 12:43:29;;;;;;;5.47;2.65;;;20.50;73.00;;;;;;4974675;28;20147;-71
2023/08/17 12:45:56;;;;;;;6.38;2.75;;;20.60;73.00;;;;;;4966047;28;20062;-71
2023/08/17 12:48:23;;;;;;;6.77;2.93;;;20.60;73.10;;;;;;4958705;28;20064;-71
2023/08/17 12:50:50;;;;;;;7.80;3.10;;;20.60;73.10;;;;;;4960769;28;20334;-71
2023/08/17 12:53:18;;;;;;;9.57;2.97;;;20.70;73.10;;;;;;4960277;28;20131;-71